English Harbour East, Canada
Current Conditions -  °F | °C
As of 7:00 AM on Sunday 25 Jan 2015 (Local Time) from LFVP Reporting Station
Light Rain Light Rain  
Wind Chill:   Ceiling: 500
Heat Index:   Visibility: 1.8mi
Dew Point:   Wind: 48mph
Humidity: 100%   Direction: 170°S
Pressure: 28.91"   Gusts: 71mph
Location:  47.65°N, 54.93°W
Report Text: LFVP 251000Z 17042G62KT 3000 -RA BKN005 07/07 Q0979 NOSIG
Loading
Personal Weather Stations






























Interactive Weather Map New forecast layout! Learn more

10-Day Weather Forecast

Advertisements
Track Severe Weather on mobile